Las Vegas, Nevada
Traffic Map
Current Weather Conditions
Las Vegas, Nevada
Broken Clouds
Broken Clouds
94°
Feels Like: 94°
Wind Chill: 94° Ceiling: 11000
Heat Index: 94° Visibility: 10mi
Dew Point: 40° Wind: 14mph
Humidity: 15% Direction: 190° (S)
Pressure: 29.82in Gusts: 24mph
Raw Report DataKLAS 262256Z 19012G21KT 10SM BKN110 BKN180 34/04 A2982 RMK AO2 WSHFT 2232 LTG DSNT SE SLP069 SH DSNT N T03440044
Traffic Incident Summary
Active as of:
Severity:
Category:
InformationThere was an issue retrieving the traffic information for this location. Please try a different location or try again shortly.
Advertisements
Track Severe Weather on mobile